sensor_id;sensor_type;location;lat;lon;timestamp;temperature;humidity
51815;DHT22;37874;53.158;6.766;2023-06-22T02:02:59;28.10;49.50
51815;DHT22;37874;53.158;6.766;2023-06-22T02:05:31;28.10;49.50
51815;DHT22;37874;53.158;6.766;2023-06-22T02:08:17;28.10;49.50
51815;DHT22;37874;53.158;6.766;2023-06-22T02:10:44;28.10;49.50
51815;DHT22;37874;53.158;6.766;2023-06-22T02:13:11;28.10;49.50
51815;DHT22;37874;53.158;6.766;2023-06-22T02:15:38;28.10;49.50
51815;DHT22;37874;53.158;6.766;2023-06-22T02:18:04;28.00;49.50
51815;DHT22;37874;53.158;6.766;2023-06-22T02:20:30;28.00;49.50
51815;DHT22;37874;53.158;6.766;2023-06-22T02:22:56;28.00;49.50
51815;DHT22;37874;53.158;6.766;2023-06-22T02:25:21;28.00;49.50
51815;DHT22;37874;53.158;6.766;2023-06-22T02:27:47;28.00;49.50
51815;DHT22;37874;53.158;6.766;2023-06-22T02:30:14;28.00;49.50
51815;DHT22;37874;53.158;6.766;2023-06-22T02:32:41;28.00;49.60
51815;DHT22;37874;53.158;6.766;2023-06-22T02:35:08;28.00;49.60
51815;DHT22;37874;53.158;6.766;2023-06-22T02:37:36;28.00;49.60
51815;DHT22;37874;53.158;6.766;2023-06-22T02:40:05;28.00;49.60
51815;DHT22;37874;53.158;6.766;2023-06-22T02:42:32;27.90;49.50
51815;DHT22;37874;53.158;6.766;2023-06-22T02:44:58;27.90;49.50
51815;DHT22;37874;53.158;6.766;2023-06-22T02:47:23;27.90;49.60
51815;DHT22;37874;53.158;6.766;2023-06-22T02:49:49;27.90;49.60
51815;DHT22;37874;53.158;6.766;2023-06-22T02:52:15;27.90;49.60
51815;DHT22;37874;53.158;6.766;2023-06-22T02:54:40;27.90;49.60
51815;DHT22;37874;53.158;6.766;2023-06-22T02:57:06;27.90;49.60
51815;DHT22;37874;53.158;6.766;2023-06-22T02:59:31;27.90;49.60
51815;DHT22;37874;53.158;6.766;2023-06-22T03:01:57;27.90;49.60
51815;DHT22;37874;53.158;6.766;2023-06-22T03:04:22;27.90;49.60
51815;DHT22;37874;53.158;6.766;2023-06-22T03:06:48;27.90;49.60
51815;DHT22;37874;53.158;6.766;2023-06-22T03:09:16;27.90;49.60
51815;DHT22;37874;53.158;6.766;2023-06-22T03:11:42;27.80;49.50
51815;DHT22;37874;53.158;6.766;2023-06-22T03:14:08;27.80;49.60
51815;DHT22;37874;53.158;6.766;2023-06-22T03:16:33;27.80;49.60
51815;DHT22;37874;53.158;6.766;2023-06-22T03:18:59;27.80;49.60
51815;DHT22;37874;53.158;6.766;2023-06-22T03:21:28;27.80;49.60
51815;DHT22;37874;53.158;6.766;2023-06-22T03:23:54;27.80;49.60
51815;DHT22;37874;53.158;6.766;2023-06-22T03:26:19;27.80;49.60
51815;DHT22;37874;53.158;6.766;2023-06-22T03:28:45;27.80;49.60
51815;DHT22;37874;53.158;6.766;2023-06-22T03:31:11;27.70;49.50
51815;DHT22;37874;53.158;6.766;2023-06-22T03:33:37;27.70;49.60
51815;DHT22;37874;53.158;6.766;2023-06-22T03:36:02;27.80;49.60
51815;DHT22;37874;53.158;6.766;2023-06-22T03:38:28;27.70;49.50
51815;DHT22;37874;53.158;6.766;2023-06-22T03:40:54;27.70;49.50
51815;DHT22;37874;53.158;6.766;2023-06-22T03:43:19;27.70;49.50
51815;DHT22;37874;53.158;6.766;2023-06-22T03:45:45;27.70;49.50
51815;DHT22;37874;53.158;6.766;2023-06-22T03:48:11;27.70;49.60
51815;DHT22;37874;53.158;6.766;2023-06-22T03:50:37;27.70;49.50
51815;DHT22;37874;53.158;6.766;2023-06-22T03:53:03;27.70;49.50
51815;DHT22;37874;53.158;6.766;2023-06-22T03:55:29;27.70;49.50
51815;DHT22;37874;53.158;6.766;2023-06-22T03:57:54;27.70;49.50
51815;DHT22;37874;53.158;6.766;2023-06-22T04:00:23;27.70;49.60
51815;DHT22;37874;53.158;6.766;2023-06-22T04:02:48;27.70;49.50
51815;DHT22;37874;53.158;6.766;2023-06-22T04:05:14;27.70;49.50
51815;DHT22;37874;53.158;6.766;2023-06-22T04:07:40;27.70;49.50
51815;DHT22;37874;53.158;6.766;2023-06-22T04:10:06;27.60;49.50
51815;DHT22;37874;53.158;6.766;2023-06-22T04:12:32;27.70;49.50
51815;DHT22;37874;53.158;6.766;2023-06-22T04:14:57;27.70;49.50
51815;DHT22;37874;53.158;6.766;2023-06-22T04:17:23;27.70;49.50
51815;DHT22;37874;53.158;6.766;2023-06-22T04:19:50;27.70;49.50
51815;DHT22;37874;53.158;6.766;2023-06-22T04:22:16;27.70;49.40
51815;DHT22;37874;53.158;6.766;2023-06-22T04:24:42;27.70;49.40
51815;DHT22;37874;53.158;6.766;2023-06-22T04:27:07;27.70;49.40
51815;DHT22;37874;53.158;6.766;2023-06-22T04:29:33;27.70;49.40
51815;DHT22;37874;53.158;6.766;2023-06-22T04:31:59;27.70;49.40
51815;DHT22;37874;53.158;6.766;2023-06-22T04:34:28;27.70;49.40
51815;DHT22;37874;53.158;6.766;2023-06-22T04:36:54;27.70;49.40
51815;DHT22;37874;53.158;6.766;2023-06-22T04:39:20;27.70;49.30
51815;DHT22;37874;53.158;6.766;2023-06-22T04:41:46;27.80;49.30
51815;DHT22;37874;53.158;6.766;2023-06-22T04:44:16;27.80;49.10
51815;DHT22;37874;53.158;6.766;2023-06-22T04:46:54;27.80;49.00
51815;DHT22;37874;53.158;6.766;2023-06-22T04:49:26;27.80;48.90
51815;DHT22;37874;53.158;6.766;2023-06-22T04:51:58;27.80;48.80
51815;DHT22;37874;53.158;6.766;2023-06-22T04:54:24;27.90;48.80
51815;DHT22;37874;53.158;6.766;2023-06-22T04:56:50;27.90;48.80
51815;DHT22;37874;53.158;6.766;2023-06-22T04:59:23;27.90;48.80
51815;DHT22;37874;53.158;6.766;2023-06-22T05:01:56;27.90;48.80
51815;DHT22;37874;53.158;6.766;2023-06-22T05:04:23;27.90;48.70
51815;DHT22;37874;53.158;6.766;2023-06-22T05:06:50;27.90;48.70
51815;DHT22;37874;53.158;6.766;2023-06-22T05:09:15;27.90;48.60
51815;DHT22;37874;53.158;6.766;2023-06-22T05:11:43;27.90;48.60
51815;DHT22;37874;53.158;6.766;2023-06-22T05:14:08;27.90;48.60
51815;DHT22;37874;53.158;6.766;2023-06-22T05:16:34;27.90;48.60
51815;DHT22;37874;53.158;6.766;2023-06-22T05:18:59;27.90;48.60
51815;DHT22;37874;53.158;6.766;2023-06-22T05:21:26;27.90;48.70
51815;DHT22;37874;53.158;6.766;2023-06-22T05:23:53;27.90;48.60
51815;DHT22;37874;53.158;6.766;2023-06-22T05:26:20;27.90;48.70
51815;DHT22;37874;53.158;6.766;2023-06-22T05:28:47;27.90;48.60
51815;DHT22;37874;53.158;6.766;2023-06-22T05:31:14;27.90;48.70
51815;DHT22;37874;53.158;6.766;2023-06-22T05:33:41;27.90;48.70
51815;DHT22;37874;53.158;6.766;2023-06-22T05:36:07;27.90;48.70
51815;DHT22;37874;53.158;6.766;2023-06-22T05:38:33;27.90;48.70
51815;DHT22;37874;53.158;6.766;2023-06-22T05:40:59;27.90;48.70
51815;DHT22;37874;53.158;6.766;2023-06-22T05:43:24;27.90;48.70
51815;DHT22;37874;53.158;6.766;2023-06-22T05:45:50;27.90;48.70
51815;DHT22;37874;53.158;6.766;2023-06-22T05:48:16;27.90;48.60
51815;DHT22;37874;53.158;6.766;2023-06-22T05:50:42;28.00;48.70
51815;DHT22;37874;53.158;6.766;2023-06-22T05:53:07;28.00;48.70
51815;DHT22;37874;53.158;6.766;2023-06-22T05:55:33;28.00;48.60
51815;DHT22;37874;53.158;6.766;2023-06-22T05:57:59;28.00;48.50
51815;DHT22;37874;53.158;6.766;2023-06-22T06:00:24;28.10;48.50
51815;DHT22;37874;53.158;6.766;2023-06-22T06:02:50;28.10;48.40
51815;DHT22;37874;53.158;6.766;2023-06-22T06:05:16;28.10;48.30
51815;DHT22;37874;53.158;6.766;2023-06-22T06:07:45;28.10;48.20
51815;DHT22;37874;53.158;6.766;2023-06-22T06:10:11;28.10;48.20
51815;DHT22;37874;53.158;6.766;2023-06-22T06:12:37;28.10;48.10
51815;DHT22;37874;53.158;6.766;2023-06-22T06:15:04;28.20;48.10
51815;DHT22;37874;53.158;6.766;2023-06-22T06:17:29;28.20;48.10
51815;DHT22;37874;53.158;6.766;2023-06-22T06:19:55;28.20;48.00
51815;DHT22;37874;53.158;6.766;2023-06-22T06:22:20;28.30;48.00
51815;DHT22;37874;53.158;6.766;2023-06-22T06:24:47;28.20;47.80
51815;DHT22;37874;53.158;6.766;2023-06-22T06:27:13;28.30;47.80
51815;DHT22;37874;53.158;6.766;2023-06-22T06:29:39;28.30;47.70
51815;DHT22;37874;53.158;6.766;2023-06-22T06:32:05;28.30;47.70
51815;DHT22;37874;53.158;6.766;2023-06-22T06:34:30;28.30;47.70
51815;DHT22;37874;53.158;6.766;2023-06-22T06:36:56;28.30;47.70
51815;DHT22;37874;53.158;6.766;2023-06-22T06:39:22;28.30;48.30
51815;DHT22;37874;53.158;6.766;2023-06-22T06:41:47;28.30;47.70
51815;DHT22;37874;53.158;6.766;2023-06-22T06:44:13;28.30;47.70
51815;DHT22;37874;53.158;6.766;2023-06-22T06:46:39;28.30;47.70
51815;DHT22;37874;53.158;6.766;2023-06-22T06:49:04;28.40;47.80
51815;DHT22;37874;53.158;6.766;2023-06-22T06:51:30;28.40;47.90
51815;DHT22;37874;53.158;6.766;2023-06-22T06:53:55;28.30;47.80
51815;DHT22;37874;53.158;6.766;2023-06-22T06:56:21;28.30;47.80
51815;DHT22;37874;53.158;6.766;2023-06-22T06:58:49;28.30;47.80
51815;DHT22;37874;53.158;6.766;2023-06-22T07:01:15;28.30;47.90
51815;DHT22;37874;53.158;6.766;2023-06-22T07:03:40;28.30;47.90
51815;DHT22;37874;53.158;6.766;2023-06-22T07:06:06;28.30;47.90
51815;DHT22;37874;53.158;6.766;2023-06-22T07:08:32;28.30;48.10
51815;DHT22;37874;53.158;6.766;2023-06-22T07:10:57;28.30;48.10
51815;DHT22;37874;53.158;6.766;2023-06-22T07:13:23;28.30;48.10
51815;DHT22;37874;53.158;6.766;2023-06-22T07:15:49;28.30;48.00
51815;DHT22;37874;53.158;6.766;2023-06-22T07:18:14;28.30;48.00
51815;DHT22;37874;53.158;6.766;2023-06-22T07:20:40;28.30;48.00
51815;DHT22;37874;53.158;6.766;2023-06-22T07:23:06;28.30;48.00
51815;DHT22;37874;53.158;6.766;2023-06-22T07:25:32;28.30;47.90
51815;DHT22;37874;53.158;6.766;2023-06-22T07:28:03;28.30;47.90
51815;DHT22;37874;53.158;6.766;2023-06-22T07:30:30;28.30;47.90
51815;DHT22;37874;53.158;6.766;2023-06-22T07:32:56;28.30;47.90
51815;DHT22;37874;53.158;6.766;2023-06-22T07:35:22;28.30;47.90
51815;DHT22;37874;53.158;6.766;2023-06-22T07:37:48;28.30;48.50
51815;DHT22;37874;53.158;6.766;2023-06-22T07:40:13;28.30;47.90
51815;DHT22;37874;53.158;6.766;2023-06-22T07:42:39;28.30;47.90
51815;DHT22;37874;53.158;6.766;2023-06-22T07:45:05;28.30;47.90
51815;DHT22;37874;53.158;6.766;2023-06-22T07:47:33;28.30;48.00
51815;DHT22;37874;53.158;6.766;2023-06-22T07:50:01;28.30;47.90
51815;DHT22;37874;53.158;6.766;2023-06-22T07:52:28;28.30;47.90
51815;DHT22;37874;53.158;6.766;2023-06-22T07:54:54;28.30;47.90
51815;DHT22;37874;53.158;6.766;2023-06-22T07:57:20;28.30;48.00
51815;DHT22;37874;53.158;6.766;2023-06-22T07:59:46;28.30;48.00
51815;DHT22;37874;53.158;6.766;2023-06-22T08:02:12;28.30;48.00
51815;DHT22;37874;53.158;6.766;2023-06-22T08:04:38;28.30;48.00
51815;DHT22;37874;53.158;6.766;2023-06-22T08:07:03;28.20;48.00
51815;DHT22;37874;53.158;6.766;2023-06-22T08:09:31;28.20;48.00
51815;DHT22;37874;53.158;6.766;2023-06-22T08:11:57;28.30;48.10
51815;DHT22;37874;53.158;6.766;2023-06-22T08:14:24;28.30;48.00
51815;DHT22;37874;53.158;6.766;2023-06-22T08:16:50;28.30;48.00
51815;DHT22;37874;53.158;6.766;2023-06-22T08:19:16;28.30;47.90
51815;DHT22;37874;53.158;6.766;2023-06-22T08:21:42;28.30;47.90
51815;DHT22;37874;53.158;6.766;2023-06-22T08:24:08;28.30;47.80
51815;DHT22;37874;53.158;6.766;2023-06-22T08:26:33;28.30;47.70
51815;DHT22;37874;53.158;6.766;2023-06-22T08:29:05;28.30;47.70
51815;DHT22;37874;53.158;6.766;2023-06-22T08:31:31;28.30;47.60
51815;DHT22;37874;53.158;6.766;2023-06-22T08:33:59;28.30;47.60
51815;DHT22;37874;53.158;6.766;2023-06-22T08:36:24;28.30;47.50
51815;DHT22;37874;53.158;6.766;2023-06-22T08:38:50;28.30;47.50
51815;DHT22;37874;53.158;6.766;2023-06-22T08:41:19;28.30;47.50
51815;DHT22;37874;53.158;6.766;2023-06-22T08:43:45;28.30;47.60
51815;DHT22;37874;53.158;6.766;2023-06-22T08:46:13;28.30;47.60
51815;DHT22;37874;53.158;6.766;2023-06-22T08:48:39;28.30;47.60
51815;DHT22;37874;53.158;6.766;2023-06-22T08:51:05;28.30;47.60
51815;DHT22;37874;53.158;6.766;2023-06-22T08:53:30;28.00;47.40
51815;DHT22;37874;53.158;6.766;2023-06-22T08:55:56;28.30;47.60
51815;DHT22;37874;53.158;6.766;2023-06-22T08:58:21;28.30;47.60
51815;DHT22;37874;53.158;6.766;2023-06-22T09:00:49;28.30;47.60
51815;DHT22;37874;53.158;6.766;2023-06-22T09:03:17;28.30;47.50
51815;DHT22;37874;53.158;6.766;2023-06-22T09:05:42;28.30;47.50
51815;DHT22;37874;53.158;6.766;2023-06-22T09:08:08;28.30;47.40
51815;DHT22;37874;53.158;6.766;2023-06-22T09:10:33;28.30;47.30
51815;DHT22;37874;53.158;6.766;2023-06-22T09:12:59;28.40;47.40
51815;DHT22;37874;53.158;6.766;2023-06-22T09:15:24;28.40;47.30
51815;DHT22;37874;53.158;6.766;2023-06-22T09:17:50;28.40;47.20
51815;DHT22;37874;53.158;6.766;2023-06-22T09:20:16;28.40;47.20
51815;DHT22;37874;53.158;6.766;2023-06-22T09:22:41;28.40;47.30
51815;DHT22;37874;53.158;6.766;2023-06-22T09:25:07;28.40;47.30
51815;DHT22;37874;53.158;6.766;2023-06-22T09:27:33;28.30;47.20
51815;DHT22;37874;53.158;6.766;2023-06-22T09:29:58;28.40;47.30
51815;DHT22;37874;53.158;6.766;2023-06-22T09:32:24;28.40;47.30
51815;DHT22;37874;53.158;6.766;2023-06-22T09:34:51;28.40;47.20
51815;DHT22;37874;53.158;6.766;2023-06-22T09:37:16;28.40;47.20
51815;DHT22;37874;53.158;6.766;2023-06-22T09:39:42;28.50;47.20
51815;DHT22;37874;53.158;6.766;2023-06-22T09:42:08;28.50;47.20
51815;DHT22;37874;53.158;6.766;2023-06-22T09:44:33;28.40;47.10
51815;DHT22;37874;53.158;6.766;2023-06-22T09:47:00;28.40;47.10
51815;DHT22;37874;53.158;6.766;2023-06-22T09:49:25;28.50;47.20
51815;DHT22;37874;53.158;6.766;2023-06-22T09:51:52;28.50;47.20
51815;DHT22;37874;53.158;6.766;2023-06-22T09:54:18;28.50;47.10
51815;DHT22;37874;53.158;6.766;2023-06-22T09:56:43;28.50;47.10
51815;DHT22;37874;53.158;6.766;2023-06-22T09:59:09;28.50;47.00
51815;DHT22;37874;53.158;6.766;2023-06-22T10:01:35;28.50;46.90
51815;DHT22;37874;53.158;6.766;2023-06-22T10:04:02;28.50;46.90
51815;DHT22;37874;53.158;6.766;2023-06-22T10:06:28;28.60;46.80
51815;DHT22;37874;53.158;6.766;2023-06-22T10:08:53;28.60;46.80
51815;DHT22;37874;53.158;6.766;2023-06-22T10:11:19;28.60;46.70
51815;DHT22;37874;53.158;6.766;2023-06-22T10:13:45;28.60;46.70
51815;DHT22;37874;53.158;6.766;2023-06-22T10:16:10;28.60;46.80
51815;DHT22;37874;53.158;6.766;2023-06-22T10:18:36;28.60;46.70
51815;DHT22;37874;53.158;6.766;2023-06-22T10:21:02;28.60;46.60
51815;DHT22;37874;53.158;6.766;2023-06-22T10:23:28;28.60;46.60
51815;DHT22;37874;53.158;6.766;2023-06-22T10:25:53;28.60;46.70
51815;DHT22;37874;53.158;6.766;2023-06-22T10:28:19;28.70;47.00
51815;DHT22;37874;53.158;6.766;2023-06-22T10:30:44;28.70;47.10
51815;DHT22;37874;53.158;6.766;2023-06-22T10:33:11;28.70;47.10
51815;DHT22;37874;53.158;6.766;2023-06-22T10:35:37;28.70;47.00
51815;DHT22;37874;53.158;6.766;2023-06-22T10:38:03;28.70;47.00
51815;DHT22;37874;53.158;6.766;2023-06-22T10:40:29;28.90;47.00
51815;DHT22;37874;53.158;6.766;2023-06-22T10:42:55;28.70;46.80
51815;DHT22;37874;53.158;6.766;2023-06-22T10:45:20;28.70;46.80
51815;DHT22;37874;53.158;6.766;2023-06-22T10:47:46;28.70;46.80
51815;DHT22;37874;53.158;6.766;2023-06-22T10:50:12;28.80;46.80
51815;DHT22;37874;53.158;6.766;2023-06-22T10:52:37;28.80;46.80
51815;DHT22;37874;53.158;6.766;2023-06-22T10:55:03;28.80;46.80
51815;DHT22;37874;53.158;6.766;2023-06-22T10:57:29;28.80;46.70
51815;DHT22;37874;53.158;6.766;2023-06-22T10:59:55;28.80;46.70
51815;DHT22;37874;53.158;6.766;2023-06-22T11:02:20;28.80;46.60
51815;DHT22;37874;53.158;6.766;2023-06-22T11:04:46;28.90;46.70
51815;DHT22;37874;53.158;6.766;2023-06-22T11:07:13;28.90;46.70
51815;DHT22;37874;53.158;6.766;2023-06-22T11:09:38;28.90;46.60
51815;DHT22;37874;53.158;6.766;2023-06-22T11:12:05;28.90;46.70
51815;DHT22;37874;53.158;6.766;2023-06-22T11:14:31;28.90;46.60
51815;DHT22;37874;53.158;6.766;2023-06-22T11:16:59;28.90;46.60
51815;DHT22;37874;53.158;6.766;2023-06-22T11:19:24;29.00;46.60
51815;DHT22;37874;53.158;6.766;2023-06-22T11:21:50;29.00;46.50
51815;DHT22;37874;53.158;6.766;2023-06-22T11:24:16;29.00;46.50
51815;DHT22;37874;53.158;6.766;2023-06-22T11:26:42;29.00;46.40
51815;DHT22;37874;53.158;6.766;2023-06-22T11:29:08;29.00;46.30
51815;DHT22;37874;53.158;6.766;2023-06-22T11:31:36;29.00;46.30
51815;DHT22;37874;53.158;6.766;2023-06-22T11:34:02;29.00;46.30
51815;DHT22;37874;53.158;6.766;2023-06-22T11:36:29;29.00;46.30
51815;DHT22;37874;53.158;6.766;2023-06-22T11:38:58;29.00;46.30
51815;DHT22;37874;53.158;6.766;2023-06-22T11:41:23;29.00;46.30
51815;DHT22;37874;53.158;6.766;2023-06-22T11:43:49;29.00;46.30
51815;DHT22;37874;53.158;6.766;2023-06-22T11:46:15;29.00;46.40
51815;DHT22;37874;53.158;6.766;2023-06-22T11:48:40;29.00;46.30
51815;DHT22;37874;53.158;6.766;2023-06-22T11:51:06;29.00;46.40
51815;DHT22;37874;53.158;6.766;2023-06-22T11:53:34;29.00;46.30
51815;DHT22;37874;53.158;6.766;2023-06-22T11:56:00;29.00;46.30
51815;DHT22;37874;53.158;6.766;2023-06-22T11:58:26;29.00;46.30
51815;DHT22;37874;53.158;6.766;2023-06-22T12:00:52;29.00;46.50
51815;DHT22;37874;53.158;6.766;2023-06-22T12:03:18;29.00;46.70
51815;DHT22;37874;53.158;6.766;2023-06-22T12:05:44;29.00;46.80
51815;DHT22;37874;53.158;6.766;2023-06-22T12:08:09;29.00;46.80
51815;DHT22;37874;53.158;6.766;2023-06-22T12:10:35;29.00;46.90
51815;DHT22;37874;53.158;6.766;2023-06-22T12:13:01;29.00;46.90
51815;DHT22;37874;53.158;6.766;2023-06-22T12:15:27;29.00;46.80
51815;DHT22;37874;53.158;6.766;2023-06-22T12:17:53;29.00;46.70
51815;DHT22;37874;53.158;6.766;2023-06-22T12:20:18;29.00;46.70
51815;DHT22;37874;53.158;6.766;2023-06-22T12:22:44;29.00;46.70
51815;DHT22;37874;53.158;6.766;2023-06-22T12:25:10;29.00;46.70
51815;DHT22;37874;53.158;6.766;2023-06-22T12:27:37;29.00;46.70
51815;DHT22;37874;53.158;6.766;2023-06-22T12:30:03;29.10;46.80
51815;DHT22;37874;53.158;6.766;2023-06-22T12:32:29;29.00;46.80
51815;DHT22;37874;53.158;6.766;2023-06-22T12:34:54;29.00;46.80
51815;DHT22;37874;53.158;6.766;2023-06-22T12:37:20;29.10;46.90
51815;DHT22;37874;53.158;6.766;2023-06-22T12:39:46;29.10;46.90
51815;DHT22;37874;53.158;6.766;2023-06-22T12:42:11;29.00;46.90
51815;DHT22;37874;53.158;6.766;2023-06-22T12:44:38;29.10;46.90
51815;DHT22;37874;53.158;6.766;2023-06-22T12:47:08;29.10;46.90
51815;DHT22;37874;53.158;6.766;2023-06-22T12:49:37;29.10;46.90
51815;DHT22;37874;53.158;6.766;2023-06-22T12:52:09;29.10;47.00
51815;DHT22;37874;53.158;6.766;2023-06-22T12:54:35;29.10;47.00
51815;DHT22;37874;53.158;6.766;2023-06-22T12:57:02;29.10;47.10
51815;DHT22;37874;53.158;6.766;2023-06-22T12:59:28;29.10;47.10
51815;DHT22;37874;53.158;6.766;2023-06-22T13:01:53;29.10;47.10
51815;DHT22;37874;53.158;6.766;2023-06-22T13:04:19;29.10;47.10
51815;DHT22;37874;53.158;6.766;2023-06-22T13:06:45;29.10;47.30
51815;DHT22;37874;53.158;6.766;2023-06-22T13:09:14;29.10;47.30
51815;DHT22;37874;53.158;6.766;2023-06-22T13:11:41;29.10;47.40
51815;DHT22;37874;53.158;6.766;2023-06-22T13:14:07;29.00;47.30
51815;DHT22;37874;53.158;6.766;2023-06-22T13:16:32;29.10;47.30
51815;DHT22;37874;53.158;6.766;2023-06-22T13:18:58;29.10;47.20
51815;DHT22;37874;53.158;6.766;2023-06-22T13:21:23;29.10;47.20
51815;DHT22;37874;53.158;6.766;2023-06-22T13:23:49;29.10;47.20
51815;DHT22;37874;53.158;6.766;2023-06-22T13:26:15;29.10;47.10
51815;DHT22;37874;53.158;6.766;2023-06-22T13:28:40;29.10;47.20
51815;DHT22;37874;53.158;6.766;2023-06-22T13:31:06;29.10;47.20
51815;DHT22;37874;53.158;6.766;2023-06-22T13:33:31;29.10;47.10
51815;DHT22;37874;53.158;6.766;2023-06-22T13:35:57;29.10;47.10
51815;DHT22;37874;53.158;6.766;2023-06-22T13:38:22;29.10;47.20
51815;DHT22;37874;53.158;6.766;2023-06-22T13:40:49;29.10;47.20
51815;DHT22;37874;53.158;6.766;2023-06-22T13:43:14;29.10;47.10
51815;DHT22;37874;53.158;6.766;2023-06-22T13:45:41;29.10;47.10
51815;DHT22;37874;53.158;6.766;2023-06-22T13:48:07;29.10;47.10
51815;DHT22;37874;53.158;6.766;2023-06-22T13:50:32;29.10;47.20
51815;DHT22;37874;53.158;6.766;2023-06-22T13:52:58;29.10;47.20
51815;DHT22;37874;53.158;6.766;2023-06-22T13:55:24;29.00;47.10
51815;DHT22;37874;53.158;6.766;2023-06-22T13:57:49;29.00;47.10
51815;DHT22;37874;53.158;6.766;2023-06-22T14:00:17;29.00;47.10
51815;DHT22;37874;53.158;6.766;2023-06-22T14:02:42;29.00;47.00
51815;DHT22;37874;53.158;6.766;2023-06-22T14:05:08;29.00;47.10
51815;DHT22;37874;53.158;6.766;2023-06-22T14:07:34;29.00;47.10
51815;DHT22;37874;53.158;6.766;2023-06-22T14:10:00;29.00;47.10
51815;DHT22;37874;53.158;6.766;2023-06-22T14:12:26;29.00;47.10
51815;DHT22;37874;53.158;6.766;2023-06-22T14:14:52;29.00;47.10
51815;DHT22;37874;53.158;6.766;2023-06-22T14:17:17;29.00;47.00
51815;DHT22;37874;53.158;6.766;2023-06-22T14:19:49;29.00;47.20
51815;DHT22;37874;53.158;6.766;2023-06-22T14:22:15;29.00;47.10
51815;DHT22;37874;53.158;6.766;2023-06-22T14:24:40;29.00;47.10
51815;DHT22;37874;53.158;6.766;2023-06-22T14:27:06;29.00;46.90
51815;DHT22;37874;53.158;6.766;2023-06-22T14:29:34;29.00;46.80
51815;DHT22;37874;53.158;6.766;2023-06-22T14:32:00;28.90;47.30
51815;DHT22;37874;53.158;6.766;2023-06-22T14:34:26;29.00;46.80
51815;DHT22;37874;53.158;6.766;2023-06-22T14:36:52;29.00;46.80
51815;DHT22;37874;53.158;6.766;2023-06-22T14:39:17;28.90;46.80
51815;DHT22;37874;53.158;6.766;2023-06-22T14:41:43;28.90;46.80
51815;DHT22;37874;53.158;6.766;2023-06-22T14:44:08;28.90;46.80
51815;DHT22;37874;53.158;6.766;2023-06-22T14:46:35;28.90;46.80
51815;DHT22;37874;53.158;6.766;2023-06-22T14:49:01;29.00;46.80
51815;DHT22;37874;53.158;6.766;2023-06-22T14:51:26;28.90;46.80
51815;DHT22;37874;53.158;6.766;2023-06-22T14:53:52;29.00;46.90
51815;DHT22;37874;53.158;6.766;2023-06-22T14:56:18;29.00;46.80
51815;DHT22;37874;53.158;6.766;2023-06-22T14:58:44;29.00;46.80
51815;DHT22;37874;53.158;6.766;2023-06-22T15:01:12;29.00;46.90
51815;DHT22;37874;53.158;6.766;2023-06-22T15:03:38;29.00;46.80
51815;DHT22;37874;53.158;6.766;2023-06-22T15:06:04;29.00;46.80
51815;DHT22;37874;53.158;6.766;2023-06-22T15:08:30;29.00;46.90
51815;DHT22;37874;53.158;6.766;2023-06-22T15:10:58;28.90;46.80
51815;DHT22;37874;53.158;6.766;2023-06-22T15:13:24;29.00;46.90
51815;DHT22;37874;53.158;6.766;2023-06-22T15:15:50;28.90;46.90
51815;DHT22;37874;53.158;6.766;2023-06-22T15:18:16;28.90;46.90
51815;DHT22;37874;53.158;6.766;2023-06-22T15:20:43;28.90;47.00
51815;DHT22;37874;53.158;6.766;2023-06-22T15:23:14;28.90;46.90
51815;DHT22;37874;53.158;6.766;2023-06-22T15:25:40;28.90;47.00
51815;DHT22;37874;53.158;6.766;2023-06-22T15:28:05;28.90;47.00
51815;DHT22;37874;53.158;6.766;2023-06-22T15:30:31;28.90;46.90
51815;DHT22;37874;53.158;6.766;2023-06-22T15:32:57;29.00;47.00
51815;DHT22;37874;53.158;6.766;2023-06-22T15:35:23;28.90;46.90
51815;DHT22;37874;53.158;6.766;2023-06-22T15:37:49;28.90;46.80
51815;DHT22;37874;53.158;6.766;2023-06-22T15:40:14;28.90;46.90
51815;DHT22;37874;53.158;6.766;2023-06-22T15:42:40;28.90;46.80
51815;DHT22;37874;53.158;6.766;2023-06-22T15:45:06;28.90;46.80
51815;DHT22;37874;53.158;6.766;2023-06-22T15:47:32;28.90;46.80
51815;DHT22;37874;53.158;6.766;2023-06-22T15:49:57;28.90;46.80
51815;DHT22;37874;53.158;6.766;2023-06-22T15:52:23;28.90;46.90
51815;DHT22;37874;53.158;6.766;2023-06-22T15:54:49;28.90;46.80
51815;DHT22;37874;53.158;6.766;2023-06-22T15:57:19;29.00;46.80
51815;DHT22;37874;53.158;6.766;2023-06-22T15:59:45;28.90;46.70
51815;DHT22;37874;53.158;6.766;2023-06-22T16:02:11;28.90;46.70
51815;DHT22;37874;53.158;6.766;2023-06-22T16:04:36;28.90;46.70
51815;DHT22;37874;53.158;6.766;2023-06-22T16:07:02;28.90;46.60
51815;DHT22;37874;53.158;6.766;2023-06-22T16:09:28;28.90;46.50
51815;DHT22;37874;53.158;6.766;2023-06-22T16:11:55;28.90;46.60
51815;DHT22;37874;53.158;6.766;2023-06-22T16:14:21;28.90;46.60
51815;DHT22;37874;53.158;6.766;2023-06-22T18:14:55;28.60;46.90
51815;DHT22;37874;53.158;6.766;2023-06-22T18:17:21;28.60;46.90
51815;DHT22;37874;53.158;6.766;2023-06-22T18:19:47;28.60;46.90
51815;DHT22;37874;53.158;6.766;2023-06-22T18:22:13;28.60;46.80
51815;DHT22;37874;53.158;6.766;2023-06-22T18:24:40;28.60;47.40
51815;DHT22;37874;53.158;6.766;2023-06-22T18:27:06;28.60;46.90
51815;DHT22;37874;53.158;6.766;2023-06-22T18:29:32;28.60;46.90
51815;DHT22;37874;53.158;6.766;2023-06-22T18:31:58;28.60;46.90
51815;DHT22;37874;53.158;6.766;2023-06-22T18:34:25;28.60;46.90
51815;DHT22;37874;53.158;6.766;2023-06-22T18:36:56;28.60;46.90
51815;DHT22;37874;53.158;6.766;2023-06-22T18:39:22;28.50;46.90
51815;DHT22;37874;53.158;6.766;2023-06-22T18:41:52;28.50;46.90
51815;DHT22;37874;53.158;6.766;2023-06-22T18:44:21;28.50;46.90
51815;DHT22;37874;53.158;6.766;2023-06-22T18:46:51;28.50;46.90
51815;DHT22;37874;53.158;6.766;2023-06-22T18:49:23;28.50;46.90
51815;DHT22;37874;53.158;6.766;2023-06-22T18:52:04;28.50;46.90
51815;DHT22;37874;53.158;6.766;2023-06-22T18:56:59;28.50;47.00
51815;DHT22;37874;53.158;6.766;2023-06-22T18:59:44;28.50;47.00
51815;DHT22;37874;53.158;6.766;2023-06-22T19:02:15;28.50;47.00
51815;DHT22;37874;53.158;6.766;2023-06-22T19:04:43;28.50;47.00
51815;DHT22;37874;53.158;6.766;2023-06-22T19:07:09;28.40;46.90
51815;DHT22;37874;53.158;6.766;2023-06-22T19:09:37;28.40;46.90
51815;DHT22;37874;53.158;6.766;2023-06-22T19:12:16;28.40;47.00
51815;DHT22;37874;53.158;6.766;2023-06-22T19:15:02;28.30;47.00
51815;DHT22;37874;53.158;6.766;2023-06-22T19:17:28;28.30;47.20
51815;DHT22;37874;53.158;6.766;2023-06-22T19:19:54;28.30;47.20
51815;DHT22;37874;53.158;6.766;2023-06-22T19:22:23;28.20;47.30
51815;DHT22;37874;53.158;6.766;2023-06-22T19:25:20;28.20;47.40
51815;DHT22;37874;53.158;6.766;2023-06-22T19:27:50;28.20;47.50